createdAt,value
2024-01-11T00:00:42.959Z,51.90
2024-01-11T00:01:42.892Z,51.65
2024-01-11T00:02:42.961Z,50.40
2024-01-11T00:03:42.888Z,52.27
2024-01-11T00:04:42.925Z,52.39
2024-01-11T00:05:43.085Z,52.36
2024-01-11T00:06:42.995Z,51.10
2024-01-11T00:07:42.899Z,50.75
2024-01-11T00:08:42.915Z,52.05
2024-01-11T00:09:42.923Z,51.70
2024-01-11T00:10:42.909Z,52.58
2024-01-11T00:11:43.016Z,51.79
2024-01-11T00:12:42.932Z,52.05
2024-01-11T00:13:42.905Z,52.68
2024-01-11T00:14:42.926Z,52.33
2024-01-11T00:15:43.001Z,51.84
2024-01-11T00:16:42.910Z,50.08
2024-01-11T00:17:43.209Z,51.28
2024-01-11T00:18:42.980Z,52.97
2024-01-11T00:19:42.928Z,51.27
2024-01-11T00:20:43.011Z,52.82
2024-01-11T00:21:42.928Z,52.55
2024-01-11T00:22:42.936Z,52.57
2024-01-11T00:23:42.973Z,50.43
2024-01-11T00:24:42.926Z,50.80
2024-01-11T00:25:42.929Z,51.46
2024-01-11T00:26:42.990Z,52.07
2024-01-11T00:27:42.934Z,52.62
2024-01-11T00:28:42.932Z,54.24
2024-01-11T00:29:42.951Z,51.15
2024-01-11T00:30:43.004Z,51.87
2024-01-11T00:31:43.022Z,52.64
2024-01-11T00:32:43.079Z,51.76
2024-01-11T00:33:43.113Z,52.93
2024-01-11T00:34:42.954Z,51.03
2024-01-11T00:35:43.091Z,51.78
2024-01-11T00:36:42.958Z,51.32
2024-01-11T00:37:42.953Z,52.02
2024-01-11T00:38:43.002Z,50.48
2024-01-11T00:39:42.962Z,51.84
2024-01-11T00:40:42.970Z,52.49
2024-01-11T00:41:43.031Z,50.10
2024-01-11T00:42:42.976Z,51.45
2024-01-11T00:43:42.973Z,52.02
2024-01-11T00:44:42.980Z,52.17
2024-01-11T00:45:42.989Z,50.00
2024-01-11T00:46:42.946Z,52.61
2024-01-11T00:47:43.088Z,52.06
2024-01-11T00:48:43.059Z,51.25
2024-01-11T00:49:43.009Z,51.34
2024-01-11T00:50:43.035Z,50.54
2024-01-11T00:51:42.971Z,52.30
2024-01-11T00:52:42.967Z,51.30
2024-01-11T00:53:42.983Z,52.33
2024-01-11T00:54:42.998Z,50.67
2024-01-11T00:55:43.006Z,52.05
2024-01-11T00:56:43.023Z,52.62
2024-01-11T00:57:42.985Z,50.51
2024-01-11T00:58:43.012Z,52.46
2024-01-11T00:59:42.983Z,53.86
2024-01-11T01:00:43.029Z,53.04
2024-01-11T01:01:42.995Z,51.86
2024-01-11T01:02:43.046Z,51.28
2024-01-11T01:03:43.045Z,52.61
2024-01-11T01:04:42.985Z,52.33
2024-01-11T01:05:43.074Z,52.76
2024-01-11T01:06:43.102Z,51.87
2024-01-11T01:07:43.001Z,51.87
2024-01-11T01:08:43.053Z,51.95
2024-01-11T01:09:43.022Z,52.22
2024-01-11T01:10:43.077Z,53.40
2024-01-11T01:11:43.137Z,51.54
2024-01-11T01:12:43.068Z,51.60
2024-01-11T01:13:43.086Z,52.07
2024-01-11T01:14:43.168Z,50.00
2024-01-11T01:15:43.140Z,51.25
2024-01-11T01:16:43.130Z,50.58
2024-01-11T01:17:43.287Z,50.30
2024-01-11T01:18:43.254Z,52.85
2024-01-11T01:19:43.186Z,51.61
2024-01-11T01:20:43.453Z,52.17
2024-01-11T01:21:43.226Z,52.66
2024-01-11T01:22:43.235Z,52.63
2024-01-11T01:23:43.309Z,51.19
2024-01-11T01:24:43.367Z,50.63
2024-01-11T01:25:43.358Z,52.65
2024-01-11T01:26:43.396Z,53.41
2024-01-11T01:27:43.417Z,51.46
2024-01-11T01:28:43.396Z,53.27
2024-01-11T01:29:43.509Z,51.77
2024-01-11T01:30:43.487Z,52.03
2024-01-11T01:31:43.456Z,51.09
2024-01-11T01:32:43.713Z,50.47
2024-01-11T01:33:43.613Z,50.45
2024-01-11T01:34:44.725Z,51.10
2024-01-11T01:35:43.646Z,50.70
2024-01-11T01:36:43.541Z,51.37
2024-01-11T01:37:43.560Z,51.02
2024-01-11T01:38:43.640Z,51.76
2024-01-11T01:39:43.629Z,53.42
2024-01-11T01:40:43.632Z,50.92
2024-01-11T01:41:43.656Z,52.82
2024-01-11T01:42:43.626Z,50.39
2024-01-11T01:43:43.632Z,50.92
2024-01-11T01:44:43.706Z,53.45
2024-01-11T01:45:44.081Z,51.73
2024-01-11T01:46:43.721Z,51.57
2024-01-11T01:47:43.786Z,51.19
2024-01-11T01:48:43.816Z,51.83
2024-01-11T01:49:43.773Z,51.50
2024-01-11T01:50:43.833Z,51.62
2024-01-11T01:51:43.743Z,52.80
2024-01-11T01:52:43.755Z,51.90
2024-01-11T01:53:43.787Z,51.17
2024-01-11T01:54:43.777Z,52.51
2024-01-11T01:55:43.822Z,52.44
2024-01-11T01:56:43.853Z,51.58
2024-01-11T01:57:43.831Z,53.12
2024-01-11T01:58:43.834Z,51.48
2024-01-11T01:59:43.854Z,51.73
2024-01-11T02:00:43.937Z,50.79
2024-01-11T02:01:43.914Z,51.82
2024-01-11T02:02:44.602Z,51.44
2024-01-11T02:03:43.985Z,51.47
2024-01-11T02:04:43.913Z,50.05
2024-01-11T02:05:44.134Z,54.22
2024-01-11T02:06:44.107Z,53.18
2024-01-11T02:07:43.962Z,51.78
2024-01-11T02:08:44.025Z,53.34
2024-01-11T02:09:44.029Z,51.26
2024-01-11T02:10:44.092Z,51.09
2024-01-11T02:11:44.105Z,53.67
2024-01-11T02:12:44.075Z,51.31
2024-01-11T02:13:44.108Z,52.72
2024-01-11T02:14:44.181Z,53.01
2024-01-11T02:15:44.201Z,52.30
2024-01-11T02:16:44.199Z,51.37
2024-01-11T02:17:44.483Z,51.79
2024-01-11T02:18:44.228Z,51.21
2024-01-11T02:19:44.240Z,52.70
2024-01-11T02:20:44.460Z,51.34
2024-01-11T02:21:44.272Z,50.91
2024-01-11T02:22:44.266Z,51.54
2024-01-11T02:23:45.098Z,52.74
2024-01-11T02:24:44.322Z,53.27
2024-01-11T02:25:44.389Z,52.28
2024-01-11T02:26:44.423Z,51.15
2024-01-11T02:27:44.413Z,52.02
2024-01-11T02:28:44.450Z,51.18
2024-01-11T02:29:44.637Z,50.96
2024-01-11T02:30:44.514Z,50.89
2024-01-11T02:31:44.486Z,51.23
2024-01-11T02:32:44.583Z,53.62
2024-01-11T02:33:44.582Z,51.98
2024-01-11T02:34:44.569Z,53.36
2024-01-11T02:35:47.681Z,52.39
2024-01-11T02:36:44.574Z,53.84
2024-01-11T02:37:44.582Z,52.09
2024-01-11T02:38:44.658Z,51.81
2024-01-11T02:39:44.576Z,53.40
2024-01-11T02:40:44.602Z,51.76
2024-01-11T02:41:44.633Z,50.96
2024-01-11T02:42:44.644Z,51.55
2024-01-11T02:43:44.589Z,52.10
2024-01-11T02:44:44.581Z,52.88
2024-01-11T02:45:44.677Z,51.68
2024-01-11T02:46:44.574Z,53.07
2024-01-11T02:47:44.703Z,52.83
2024-01-11T02:48:44.692Z,51.61
2024-01-11T02:49:44.584Z,52.43
2024-01-11T02:50:44.700Z,52.41
2024-01-11T02:51:44.620Z,50.12
2024-01-11T02:52:44.587Z,52.36
2024-01-11T02:53:44.644Z,52.94
2024-01-11T02:54:44.585Z,52.86
2024-01-11T02:55:44.636Z,52.70
2024-01-11T02:56:44.673Z,50.50
2024-01-11T02:57:44.594Z,53.49
2024-01-11T02:58:44.594Z,51.19
2024-01-11T02:59:44.606Z,51.58
2024-01-11T03:00:44.617Z,52.22
2024-01-11T03:01:44.599Z,52.81
2024-01-11T03:02:44.673Z,53.17
2024-01-11T03:03:44.598Z,50.85
2024-01-11T03:04:44.604Z,53.88
2024-01-11T03:05:44.663Z,51.45
2024-01-11T03:06:44.654Z,51.35
2024-01-11T03:07:44.612Z,52.29
2024-01-11T03:08:44.645Z,52.67
2024-01-11T03:09:44.600Z,53.56
2024-01-11T03:10:44.618Z,51.89
2024-01-11T03:11:44.633Z,51.90
2024-01-11T03:12:44.623Z,52.50
2024-01-11T03:13:44.629Z,52.08
2024-01-11T03:14:44.648Z,51.86
2024-01-11T03:15:44.644Z,51.95
2024-01-11T03:16:44.653Z,51.07
2024-01-11T03:17:44.759Z,51.53
2024-01-11T03:18:44.776Z,50.99
2024-01-11T03:19:44.662Z,54.24
2024-01-11T03:20:44.682Z,52.22
2024-01-11T03:21:44.630Z,51.97
2024-01-11T03:22:44.635Z,50.57
2024-01-11T03:23:44.686Z,51.90
2024-01-11T03:24:44.669Z,50.00
2024-01-11T03:25:44.660Z,50.74
2024-01-11T03:26:44.805Z,52.45
2024-01-11T03:27:44.654Z,52.50
2024-01-11T03:28:44.643Z,52.23
2024-01-11T03:29:44.698Z,51.96
2024-01-11T03:30:45.042Z,51.26
2024-01-11T03:31:44.644Z,51.27
2024-01-11T03:32:44.782Z,52.65
2024-01-11T03:33:44.778Z,51.04
2024-01-11T03:34:44.659Z,53.98
2024-01-11T03:35:44.678Z,51.23
2024-01-11T03:36:44.651Z,51.06
2024-01-11T03:37:44.646Z,51.15
2024-01-11T03:38:44.698Z,51.63
2024-01-11T03:39:44.668Z,50.33
2024-01-11T03:40:44.686Z,51.42
2024-01-11T03:41:44.693Z,52.83
2024-01-11T03:42:44.650Z,52.51
2024-01-11T03:43:44.659Z,51.60
2024-01-11T03:44:44.712Z,51.21
2024-01-11T03:45:44.665Z,52.89
2024-01-11T03:46:44.672Z,51.49
2024-01-11T03:47:44.807Z,51.17
2024-01-11T03:48:44.779Z,52.62
2024-01-11T03:49:44.666Z,51.33
2024-01-11T03:50:44.743Z,50.00
2024-01-11T03:51:44.661Z,53.72
2024-01-11T03:52:44.696Z,52.64
2024-01-11T03:53:44.732Z,51.95
2024-01-11T03:54:44.683Z,51.62
2024-01-11T03:55:44.674Z,50.65
2024-01-11T03:56:44.825Z,52.94
2024-01-11T03:57:44.685Z,52.55
2024-01-11T03:58:44.679Z,52.67
2024-01-11T03:59:44.731Z,54.00
2024-01-11T04:00:44.798Z,52.38
2024-01-11T04:01:44.696Z,50.00
2024-01-11T04:02:44.815Z,53.43
2024-01-11T04:03:44.704Z,52.36
2024-01-11T04:04:44.699Z,53.19
2024-01-11T04:05:44.917Z,52.56
2024-01-11T04:06:44.718Z,52.98
2024-01-11T04:07:44.701Z,53.15
2024-01-11T04:08:44.778Z,51.75
2024-01-11T04:09:44.691Z,52.16
2024-01-11T04:10:44.747Z,52.53
2024-01-11T04:11:44.761Z,52.11
2024-01-11T04:12:44.740Z,52.73
2024-01-11T04:13:44.763Z,51.33
2024-01-11T04:14:44.780Z,53.18
2024-01-11T04:15:44.816Z,51.99
2024-01-11T04:16:44.825Z,51.33
2024-01-11T04:17:44.928Z,51.86
2024-01-11T04:18:44.952Z,51.67
2024-01-11T04:19:44.908Z,51.08
2024-01-11T04:20:45.006Z,50.05
2024-01-11T04:21:44.963Z,51.26
2024-01-11T04:22:44.984Z,52.19
2024-01-11T04:23:45.020Z,50.58
2024-01-11T04:24:45.021Z,50.86
2024-01-11T04:25:45.036Z,52.02
2024-01-11T04:26:45.102Z,52.14
2024-01-11T04:27:45.084Z,51.68
2024-01-11T04:28:45.093Z,51.45
2024-01-11T04:29:45.123Z,51.48
2024-01-11T04:30:45.144Z,53.17
2024-01-11T04:31:45.130Z,52.42
2024-01-11T04:32:45.271Z,50.67
2024-01-11T04:33:45.245Z,52.15
2024-01-11T04:34:45.181Z,50.00
2024-01-11T04:35:45.280Z,50.58
2024-01-11T04:36:45.210Z,53.07
2024-01-11T04:37:45.232Z,52.00
2024-01-11T04:38:45.308Z,52.64
2024-01-11T04:39:45.267Z,52.64
2024-01-11T04:40:45.290Z,52.46
2024-01-11T04:41:45.339Z,52.48
2024-01-11T04:42:45.350Z,53.86
2024-01-11T04:43:45.377Z,52.83
2024-01-11T04:44:45.487Z,51.50
2024-01-11T04:45:45.520Z,52.83
2024-01-11T04:46:45.442Z,51.63
2024-01-11T04:47:45.642Z,52.73
2024-01-11T04:48:45.617Z,52.35
2024-01-11T04:49:45.510Z,53.13
2024-01-11T04:50:45.582Z,52.63
2024-01-11T04:51:45.582Z,51.41
2024-01-11T04:52:45.627Z,51.51
2024-01-11T04:53:45.718Z,52.14
2024-01-11T04:54:45.633Z,52.47
2024-01-11T04:55:45.732Z,52.35
2024-01-11T04:57:53.014Z,50.00
2024-01-11T04:58:53.014Z,50.00
2024-01-11T04:59:53.015Z,50.00
2024-01-11T05:00:53.092Z,50.00
2024-01-11T05:01:53.045Z,50.00
2024-01-11T05:02:53.071Z,53.20
2024-01-11T05:03:53.070Z,50.00
2024-01-11T05:04:53.037Z,51.48
2024-01-11T05:05:53.114Z,51.41
2024-01-11T05:06:53.145Z,51.83
2024-01-11T05:07:53.092Z,52.13
2024-01-11T05:08:53.027Z,50.50
2024-01-11T05:09:53.061Z,52.77
2024-01-11T05:10:53.036Z,53.56
2024-01-11T05:11:53.029Z,51.73
2024-01-11T05:12:53.061Z,52.45
2024-01-11T05:13:53.044Z,52.21
2024-01-11T05:14:53.074Z,52.39
2024-01-11T05:15:53.081Z,51.98
2024-01-11T05:16:53.083Z,52.26
2024-01-11T05:17:53.082Z,51.46
2024-01-11T05:18:53.180Z,52.50
2024-01-11T05:19:53.041Z,51.59
2024-01-11T05:20:53.123Z,53.31
2024-01-11T05:21:53.045Z,52.06
2024-01-11T05:22:53.045Z,51.40
2024-01-11T05:23:53.070Z,51.78
2024-01-11T05:24:53.086Z,52.52
2024-01-11T05:25:53.095Z,52.92
2024-01-11T05:26:53.081Z,51.54
2024-01-11T05:27:53.060Z,51.81
2024-01-11T05:28:53.053Z,54.11
2024-01-11T05:29:53.061Z,51.01
2024-01-11T05:30:53.133Z,53.59
2024-01-11T05:31:53.200Z,50.32
2024-01-11T05:32:53.138Z,50.71
2024-01-11T05:33:53.219Z,53.71
2024-01-11T05:34:53.093Z,52.05
2024-01-11T05:35:53.075Z,52.54
2024-01-11T05:36:53.084Z,52.66
2024-01-11T05:37:53.106Z,51.69
2024-01-11T05:38:53.064Z,53.22
2024-01-11T05:39:53.122Z,50.67
2024-01-11T05:40:53.079Z,50.54
2024-01-11T05:41:53.077Z,52.67
2024-01-11T05:42:53.090Z,53.26
2024-01-11T05:43:53.079Z,52.42
2024-01-11T05:44:53.088Z,52.59
2024-01-11T05:45:53.093Z,50.74
2024-01-11T05:46:53.084Z,53.42
2024-01-11T05:47:53.177Z,52.05
2024-01-11T05:48:53.160Z,53.53
2024-01-11T05:49:53.072Z,55.52
2024-01-11T05:50:53.095Z,54.35
2024-01-11T05:51:53.103Z,54.69
2024-01-11T05:52:53.098Z,52.86
2024-01-11T05:53:53.123Z,54.06
2024-01-11T05:54:53.204Z,52.43
2024-01-11T05:55:55.213Z,52.08
2024-01-11T05:56:53.227Z,53.55
2024-01-11T05:57:53.262Z,53.02
2024-01-11T05:58:53.326Z,53.08
2024-01-11T05:59:53.335Z,51.76
2024-01-11T06:00:53.488Z,52.43
2024-01-11T06:01:53.405Z,50.01
2024-01-11T06:02:53.415Z,52.58
2024-01-11T06:03:53.539Z,51.52
2024-01-11T06:04:53.471Z,50.60
2024-01-11T06:05:53.604Z,50.09
2024-01-11T06:06:53.542Z,53.27
2024-01-11T06:07:53.601Z,53.50
2024-01-11T06:08:53.634Z,51.48
2024-01-11T06:09:53.759Z,52.79
2024-01-11T06:10:53.673Z,53.29
2024-01-11T06:11:53.743Z,53.23
2024-01-11T06:12:53.784Z,53.54
2024-01-11T06:13:53.799Z,51.10
2024-01-11T06:14:53.838Z,52.59
2024-01-11T06:15:53.880Z,52.61
2024-01-11T06:16:53.922Z,51.63
2024-01-11T06:17:54.142Z,53.16
2024-01-11T06:18:54.068Z,53.13
2024-01-11T06:19:54.017Z,52.97
2024-01-11T06:20:54.085Z,51.69
2024-01-11T06:21:54.099Z,53.39
2024-01-11T06:22:54.155Z,52.36
2024-01-11T06:23:54.189Z,53.78
2024-01-11T06:24:54.217Z,52.26
2024-01-11T06:25:54.252Z,51.34
2024-01-11T06:26:54.293Z,53.79
2024-01-11T06:27:54.325Z,53.20
2024-01-11T06:28:54.386Z,51.55
2024-01-11T06:29:54.430Z,52.92
2024-01-11T06:30:54.516Z,51.32
2024-01-11T06:31:54.491Z,53.17
2024-01-11T06:32:54.603Z,52.18
2024-01-11T06:33:54.682Z,52.67
2024-01-11T06:35:17.208Z,50.00
2024-01-11T06:35:54.660Z,50.13
2024-01-11T06:36:55.206Z,50.11
2024-01-11T06:37:54.630Z,50.06
2024-01-11T06:38:54.657Z,51.87
2024-01-11T06:39:54.601Z,57.99
2024-01-11T06:40:54.630Z,64.92
2024-01-11T06:41:54.695Z,72.37
2024-01-11T06:42:54.647Z,78.13
2024-01-11T06:43:54.624Z,82.49
2024-01-11T06:44:54.657Z,89.38
2024-01-11T06:45:54.635Z,91.11
2024-01-11T06:46:54.635Z,99.35
2024-01-11T06:47:54.736Z,101.63
2024-01-11T06:48:54.709Z,107.32
2024-01-11T06:49:54.686Z,107.95
2024-01-11T06:50:54.698Z,112.88
2024-01-11T06:51:54.665Z,115.05
2024-01-11T06:52:54.644Z,119.29
2024-01-11T06:53:54.757Z,122.56
2024-01-11T06:54:54.661Z,124.59
2024-01-11T06:55:54.690Z,130.78
2024-01-11T06:56:54.650Z,137.14
2024-01-11T06:57:54.680Z,144.88
2024-01-11T06:58:54.651Z,151.71
2024-01-11T06:59:54.745Z,155.28
2024-01-11T07:00:54.672Z,164.98
2024-01-11T07:01:54.661Z,170.83
2024-01-11T07:02:54.669Z,174.06
2024-01-11T07:03:54.713Z,172.97
2024-01-11T07:04:54.703Z,175.13
2024-01-11T07:05:54.798Z,176.90
2024-01-11T07:06:54.766Z,179.55
2024-01-11T07:07:54.771Z,183.55
2024-01-11T07:08:54.796Z,185.39
2024-01-11T07:09:54.792Z,185.00
2024-01-11T07:10:54.817Z,189.04
2024-01-11T07:11:54.845Z,189.82
2024-01-11T07:12:54.841Z,192.14
2024-01-11T07:13:54.876Z,195.21
2024-01-11T07:14:54.872Z,198.57
2024-01-11T07:15:54.914Z,200.00
2024-01-11T07:16:54.922Z,200.00
2024-01-11T07:17:55.127Z,200.00
2024-01-11T07:18:55.012Z,198.72
2024-01-11T07:19:55.029Z,200.00
2024-01-11T07:20:55.114Z,198.51
2024-01-11T07:21:55.027Z,200.00
2024-01-11T07:22:54.984Z,200.00
2024-01-11T07:23:55.126Z,198.25
2024-01-11T07:24:55.047Z,198.45
2024-01-11T07:25:55.029Z,197.95
2024-01-11T07:26:55.354Z,199.89
2024-01-11T07:27:55.090Z,197.71
2024-01-11T07:28:55.083Z,198.39
2024-01-11T07:29:55.207Z,198.74
2024-01-11T07:30:55.227Z,198.39
2024-01-11T07:31:55.186Z,197.89
2024-01-11T07:32:55.355Z,200.00
2024-01-11T07:33:55.255Z,198.44
2024-01-11T07:34:55.218Z,200.00
2024-01-11T07:35:55.365Z,199.53
2024-01-11T07:36:55.721Z,199.61
2024-01-11T07:37:55.227Z,196.88
2024-01-11T07:38:56.254Z,196.35
2024-01-11T07:39:55.389Z,192.04
2024-01-11T07:40:55.358Z,192.12
2024-01-11T07:41:55.426Z,188.81
2024-01-11T07:42:55.409Z,188.14
2024-01-11T07:43:56.279Z,187.22
2024-01-11T07:44:55.437Z,186.88
2024-01-11T07:45:56.303Z,186.16
2024-01-11T07:46:59.177Z,186.99
2024-01-11T07:47:55.489Z,187.04
2024-01-11T07:48:55.576Z,187.04
2024-01-11T07:49:55.399Z,185.82
2024-01-11T07:50:55.430Z,185.31
2024-01-11T07:51:55.408Z,184.38
2024-01-11T07:52:55.458Z,184.09
2024-01-11T07:53:56.225Z,185.73
2024-01-11T07:54:55.404Z,185.07
2024-01-11T07:55:55.412Z,182.96
2024-01-11T07:56:55.428Z,185.26
2024-01-11T07:57:55.434Z,183.64
2024-01-11T07:58:55.477Z,183.65
2024-01-11T07:59:55.433Z,183.20
2024-01-11T08:00:55.652Z,183.95
2024-01-11T08:01:55.550Z,184.04
2024-01-11T08:02:55.520Z,185.78
2024-01-11T08:03:55.476Z,183.42
2024-01-11T08:04:55.423Z,183.04
2024-01-11T08:05:55.554Z,183.86
2024-01-11T08:06:55.518Z,185.25
2024-01-11T08:07:55.453Z,185.12
2024-01-11T08:08:55.481Z,187.31
2024-01-11T08:09:55.513Z,185.07
2024-01-11T08:10:55.406Z,186.10
2024-01-11T08:11:57.402Z,185.56
2024-01-11T08:12:55.414Z,187.60
2024-01-11T08:13:55.549Z,186.46
2024-01-11T08:14:55.415Z,183.32
2024-01-11T08:15:55.487Z,183.94
2024-01-11T08:16:55.494Z,181.84
2024-01-11T08:17:55.525Z,180.04
2024-01-11T08:18:55.437Z,177.89
2024-01-11T08:19:55.478Z,175.31
2024-01-11T08:20:55.446Z,173.86
2024-01-11T08:21:55.452Z,173.34
2024-01-11T08:22:55.449Z,172.45
2024-01-11T08:23:56.416Z,171.02
2024-01-11T08:24:55.428Z,169.74
2024-01-11T08:25:55.489Z,169.62
2024-01-11T08:26:55.502Z,172.30
2024-01-11T08:27:55.484Z,166.98
2024-01-11T08:28:55.518Z,163.71
2024-01-11T08:29:55.556Z,166.05
2024-01-11T08:30:55.757Z,165.79
2024-01-11T08:31:55.742Z,168.59
2024-01-11T08:32:55.830Z,169.06
2024-01-11T08:33:55.846Z,168.09
2024-01-11T08:34:55.870Z,164.56
2024-01-11T08:35:55.957Z,163.13
2024-01-11T08:36:55.961Z,165.14
2024-01-11T08:37:56.056Z,165.35
2024-01-11T08:38:56.140Z,168.59
2024-01-11T08:39:56.176Z,172.16
2024-01-11T08:40:56.251Z,170.65
2024-01-11T08:41:56.313Z,171.98
2024-01-11T08:42:56.364Z,201.32
2024-01-11T08:43:56.452Z,194.96
2024-01-11T08:44:56.978Z,184.48
2024-01-11T08:45:56.558Z,178.82
2024-01-11T08:46:57.276Z,173.75
2024-01-11T08:47:56.672Z,169.27
2024-01-11T08:48:56.790Z,163.44
2024-01-11T08:49:56.662Z,160.08
2024-01-11T08:50:56.765Z,155.72
2024-01-11T08:51:56.788Z,152.55
2024-01-11T08:52:57.169Z,150.35
2024-01-11T08:53:56.861Z,147.80
2024-01-11T08:54:56.851Z,145.83
2024-01-11T08:55:56.903Z,146.07
2024-01-11T08:56:57.244Z,145.11
2024-01-11T08:57:56.877Z,145.28
2024-01-11T08:58:56.888Z,144.77
2024-01-11T08:59:56.878Z,145.93
2024-01-11T09:00:56.970Z,149.64
2024-01-11T09:02:06.262Z,150.41
2024-01-11T09:02:59.015Z,150.54
2024-01-11T09:03:56.942Z,151.27
2024-01-11T09:04:56.913Z,152.48
2024-01-11T09:05:56.971Z,154.92
2024-01-11T09:06:57.400Z,157.94
2024-01-11T09:07:57.009Z,159.65
2024-01-11T09:08:57.777Z,157.85
2024-01-11T09:09:57.825Z,157.70
2024-01-11T09:10:57.134Z,159.46
2024-01-11T09:11:57.307Z,158.18
2024-01-11T09:12:57.768Z,157.83
2024-01-11T09:13:57.227Z,158.11
2024-01-11T09:14:57.246Z,157.88
2024-01-11T09:15:57.368Z,157.84
2024-01-11T09:16:57.338Z,157.34
2024-01-11T09:17:57.566Z,158.29
2024-01-11T09:18:57.424Z,157.74
2024-01-11T09:19:57.389Z,155.70
2024-01-11T09:20:57.533Z,162.14
2024-01-11T09:21:57.465Z,161.48
2024-01-11T09:22:57.556Z,155.54
2024-01-11T09:23:57.536Z,153.44
2024-01-11T09:24:57.654Z,152.14
2024-01-11T09:25:57.657Z,152.35
2024-01-11T09:26:57.783Z,149.16
2024-01-11T09:27:57.724Z,146.49
2024-01-11T09:28:57.812Z,149.67
2024-01-11T09:29:57.874Z,152.58
2024-01-11T09:30:57.984Z,154.35
2024-01-11T09:31:58.421Z,156.81
2024-01-11T09:32:58.376Z,157.77
2024-01-11T09:33:58.177Z,158.06
2024-01-11T09:34:58.740Z,159.25
2024-01-11T09:35:58.382Z,160.33
2024-01-11T09:36:58.298Z,160.41
2024-01-11T09:37:58.382Z,161.80
2024-01-11T09:38:58.484Z,162.67
2024-01-11T09:39:58.421Z,163.71
2024-01-11T09:40:58.449Z,165.84
2024-01-11T09:41:58.796Z,164.37
2024-01-11T09:42:59.405Z,167.08
2024-01-11T09:43:58.518Z,174.48
2024-01-11T09:44:58.580Z,179.94
2024-01-11T09:45:59.304Z,180.35
2024-01-11T09:46:58.740Z,183.22
2024-01-11T09:47:58.725Z,186.18
2024-01-11T09:48:58.721Z,187.07
2024-01-11T09:49:58.712Z,186.66
2024-01-11T09:50:58.743Z,187.50
2024-01-11T09:51:58.762Z,188.13
2024-01-11T09:52:58.768Z,187.52
2024-01-11T09:53:58.744Z,189.87
2024-01-11T09:54:58.866Z,191.00
2024-01-11T09:55:58.748Z,191.16
2024-01-11T09:56:58.797Z,190.12
2024-01-11T09:57:58.836Z,189.04
2024-01-11T09:58:58.956Z,189.76
2024-01-11T09:59:58.996Z,189.00
2024-01-11T10:00:58.867Z,187.96
2024-01-11T10:01:58.877Z,188.89
2024-01-11T10:02:58.951Z,187.60
2024-01-11T10:03:58.989Z,187.02
2024-01-11T10:04:58.941Z,185.82
2024-01-11T10:05:59.208Z,187.32
2024-01-11T10:06:59.124Z,186.29
2024-01-11T10:07:59.071Z,185.80
2024-01-11T10:08:59.087Z,186.51
2024-01-11T10:09:59.136Z,184.85
2024-01-11T10:10:59.212Z,183.74
2024-01-11T10:11:59.249Z,185.07
2024-01-11T10:12:59.325Z,183.35
2024-01-11T10:13:59.336Z,184.84
2024-01-11T10:14:59.385Z,184.38
2024-01-11T10:15:59.445Z,183.47
2024-01-11T10:16:59.506Z,183.14
2024-01-11T10:17:59.782Z,183.52
2024-01-11T10:18:59.774Z,181.79
2024-01-11T10:19:59.797Z,182.22
2024-01-11T10:20:59.839Z,181.45
2024-01-11T10:22:00.787Z,181.56
2024-01-11T10:22:59.874Z,182.50
2024-01-11T10:24:00.003Z,182.01
2024-01-11T10:24:59.972Z,181.97
2024-01-11T10:26:01.788Z,181.04
2024-01-11T10:27:00.281Z,182.25
2024-01-11T10:28:00.135Z,181.46
2024-01-11T10:29:00.306Z,181.60
2024-01-11T10:30:00.277Z,182.77
2024-01-11T10:31:00.615Z,183.06
2024-01-11T10:32:00.947Z,182.32
2024-01-11T10:33:00.734Z,198.76
2024-01-11T10:34:00.704Z,194.47
2024-01-11T10:35:01.250Z,192.21
2024-01-11T10:36:00.701Z,197.14
2024-01-11T10:37:00.760Z,199.16
2024-01-11T10:38:00.946Z,195.49
2024-01-11T10:39:01.301Z,195.32
2024-01-11T10:40:01.039Z,194.88
2024-01-11T10:41:01.101Z,192.62
2024-01-11T10:42:03.538Z,190.75
2024-01-11T10:43:01.086Z,187.51
2024-01-11T10:44:01.151Z,185.78
2024-01-11T10:45:01.154Z,180.86
2024-01-11T10:46:01.105Z,182.18
2024-01-11T10:47:01.114Z,180.41
2024-01-11T10:48:03.901Z,178.79
2024-01-11T10:49:01.186Z,178.83
2024-01-11T10:50:01.156Z,179.00
2024-01-11T10:51:01.113Z,178.99
2024-01-11T10:52:01.154Z,178.02
2024-01-11T10:53:01.151Z,178.55
2024-01-11T10:54:02.345Z,178.77
2024-01-11T10:55:01.111Z,178.12
2024-01-11T10:56:01.196Z,179.25
2024-01-11T10:57:01.139Z,177.98
2024-01-11T10:58:01.122Z,179.34
2024-01-11T10:59:01.332Z,178.94
2024-01-11T11:00:01.123Z,179.28
2024-01-11T11:01:01.195Z,178.35
2024-01-11T11:02:01.954Z,177.04
2024-01-11T11:03:01.309Z,176.26
2024-01-11T11:04:01.106Z,177.32
2024-01-11T11:05:01.169Z,176.91
2024-01-11T11:06:01.223Z,175.45
2024-01-11T11:07:01.115Z,174.79
2024-01-11T11:08:01.230Z,176.37
2024-01-11T11:09:01.117Z,176.02
2024-01-11T11:10:01.162Z,176.89
2024-01-11T11:11:01.157Z,175.90
2024-01-11T11:12:01.117Z,177.24
2024-01-11T11:13:01.305Z,176.06
2024-01-11T11:14:01.147Z,175.95
2024-01-11T11:15:01.127Z,175.41
2024-01-11T11:16:02.328Z,172.78
2024-01-11T11:17:01.264Z,171.61
2024-01-11T11:18:01.239Z,170.51
2024-01-11T11:19:01.199Z,170.04
2024-01-11T11:20:01.180Z,166.66
2024-01-11T11:21:01.175Z,169.07
2024-01-11T11:22:01.287Z,166.27
2024-01-11T11:23:01.291Z,164.86
2024-01-11T11:24:01.331Z,163.86
2024-01-11T11:25:01.413Z,165.05
2024-01-11T11:26:01.547Z,164.77
2024-01-11T11:27:02.012Z,162.23
2024-01-11T11:28:01.555Z,156.68
2024-01-11T11:29:02.276Z,157.08
2024-01-11T11:30:01.738Z,161.20
2024-01-11T11:31:01.676Z,164.60
2024-01-11T11:32:01.915Z,168.99
2024-01-11T11:33:02.029Z,173.03
2024-01-11T11:34:03.789Z,177.90
2024-01-11T11:35:02.142Z,181.40
2024-01-11T11:36:01.981Z,185.85
2024-01-11T11:37:02.037Z,187.07
2024-01-11T11:38:02.123Z,189.31
2024-01-11T11:39:02.795Z,191.46
2024-01-11T11:40:04.864Z,191.05
2024-01-11T11:41:02.387Z,192.25
2024-01-11T11:42:02.299Z,193.69
2024-01-11T11:43:02.817Z,192.31
2024-01-11T11:44:02.274Z,193.34
2024-01-11T11:45:02.239Z,192.34
2024-01-11T11:46:04.092Z,190.58
2024-01-11T11:47:02.269Z,189.76
2024-01-11T11:48:02.339Z,190.09
2024-01-11T11:49:02.332Z,188.85
2024-01-11T11:50:02.370Z,190.17
2024-01-11T11:51:02.404Z,188.20
2024-01-11T11:52:02.282Z,188.11
2024-01-11T11:53:02.345Z,190.47
2024-01-11T11:54:03.293Z,191.71
2024-01-11T11:55:02.433Z,193.23
2024-01-11T11:56:02.484Z,194.63
2024-01-11T11:57:02.549Z,195.01
2024-01-11T11:58:02.592Z,197.07
2024-01-11T11:59:02.654Z,198.13
2024-01-11T12:00:02.692Z,199.64
2024-01-11T12:01:02.736Z,198.48
2024-01-11T12:02:02.812Z,200.00
2024-01-11T12:03:03.840Z,200.00
2024-01-11T12:04:02.888Z,199.46
2024-01-11T12:05:03.036Z,199.84
2024-01-11T12:06:03.258Z,198.80
2024-01-11T12:07:03.108Z,198.69
2024-01-11T12:08:03.239Z,199.82
2024-01-11T12:09:03.213Z,200.00
2024-01-11T12:10:03.292Z,199.19
2024-01-11T12:11:03.391Z,200.00
2024-01-11T12:12:11.484Z,197.81
2024-01-11T12:13:04.483Z,197.90
2024-01-11T12:14:03.553Z,198.18
2024-01-11T12:15:03.468Z,198.60
2024-01-11T12:16:03.430Z,200.71
2024-01-11T12:17:03.548Z,204.11
2024-01-11T12:18:03.566Z,199.50
2024-01-11T12:19:03.533Z,193.67
2024-01-11T12:20:03.508Z,190.10
2024-01-11T12:21:03.565Z,189.17
2024-01-11T12:22:03.663Z,194.23
2024-01-11T12:23:03.775Z,200.03
2024-01-11T12:24:03.753Z,200.00
2024-01-11T12:25:03.753Z,200.22
2024-01-11T12:26:03.842Z,201.34
2024-01-11T12:27:03.787Z,202.60
2024-01-11T12:28:03.755Z,204.25
2024-01-11T12:29:03.899Z,206.53
2024-01-11T12:30:03.799Z,198.19
2024-01-11T12:31:03.772Z,198.26
2024-01-11T12:32:03.827Z,199.32
2024-01-11T12:33:03.985Z,199.88
2024-01-11T12:34:03.954Z,200.36
2024-01-11T12:35:03.945Z,198.49
2024-01-11T12:36:03.979Z,198.61
2024-01-11T12:37:04.004Z,198.52
2024-01-11T12:38:04.106Z,195.95
2024-01-11T12:39:04.188Z,195.64
2024-01-11T12:40:04.227Z,194.15
2024-01-11T12:41:04.319Z,191.61
2024-01-11T12:42:04.375Z,191.04
2024-01-11T12:43:04.578Z,190.30